createdAt,value
2017-10-28T00:01:16.627Z,25.23
2017-10-28T00:03:43.474Z,8.60
2017-10-28T00:06:10.536Z,21.03
2017-10-28T00:08:37.372Z,12.30
2017-10-28T00:11:04.532Z,11.00
2017-10-28T00:13:31.570Z,11.43
2017-10-28T00:15:58.379Z,9.83
2017-10-28T00:18:25.180Z,8.37
2017-10-28T00:20:52.206Z,15.23
2017-10-28T00:23:19.002Z,14.67
2017-10-28T00:25:45.814Z,10.70
2017-10-28T00:28:12.940Z,4.17
2017-10-28T00:30:39.983Z,18.80
2017-10-28T00:33:07.139Z,7.93
2017-10-28T00:35:33.934Z,6.90
2017-10-28T00:38:00.769Z,9.10
2017-10-28T00:40:27.604Z,12.73
2017-10-28T00:42:54.424Z,5.60
2017-10-28T00:45:21.226Z,17.20
2017-10-28T00:47:48.300Z,8.63
2017-10-28T00:50:15.107Z,10.57
2017-10-28T00:52:41.915Z,5.90
2017-10-28T00:55:08.733Z,11.40
2017-10-28T00:57:35.771Z,6.90
2017-10-28T01:00:02.567Z,11.63
2017-10-28T01:02:29.390Z,6.87
2017-10-28T01:04:56.201Z,12.27
2017-10-28T01:07:23.246Z,10.97
2017-10-28T01:09:50.402Z,15.50
2017-10-28T01:12:17.454Z,13.00
2017-10-28T01:14:44.230Z,8.33
2017-10-28T01:17:11.341Z,13.63
2017-10-28T01:19:38.156Z,6.63
2017-10-28T01:22:04.926Z,8.37
2017-10-28T01:24:31.747Z,13.23
2017-10-28T01:26:58.580Z,12.60
2017-10-28T01:29:25.387Z,6.03
2017-10-28T01:31:52.197Z,11.13
2017-10-28T01:34:18.994Z,12.57
2017-10-28T01:36:46.084Z,7.03
2017-10-28T01:39:12.882Z,17.57
2017-10-28T01:41:39.669Z,11.43
2017-10-28T01:44:06.710Z,6.40
2017-10-28T01:46:33.514Z,8.00
2017-10-28T01:49:00.364Z,8.60
2017-10-28T01:51:27.168Z,7.50
2017-10-28T01:53:54.294Z,11.63
2017-10-28T01:56:21.108Z,9.17
2017-10-28T01:58:47.927Z,14.33
2017-10-28T02:01:14.722Z,9.87
2017-10-28T02:03:41.875Z,9.60
2017-10-28T02:06:08.675Z,15.93
2017-10-28T02:08:35.763Z,15.83
2017-10-28T02:11:02.810Z,12.03
2017-10-28T02:13:29.641Z,17.73
2017-10-28T02:15:56.478Z,19.07
2017-10-28T02:18:23.543Z,17.10
2017-10-28T02:20:50.327Z,16.33
2017-10-28T02:23:17.149Z,24.53
2017-10-28T02:25:43.965Z,10.60
2017-10-28T02:28:10.754Z,12.17
2017-10-28T02:30:37.863Z,14.20
2017-10-28T02:33:04.906Z,12.97
2017-10-28T02:35:31.960Z,18.00
2017-10-28T02:37:59.108Z,12.33
2017-10-28T02:40:25.882Z,14.93
2017-10-28T02:42:52.663Z,20.63
2017-10-28T02:45:19.502Z,14.93
2017-10-28T02:47:46.281Z,12.53
2017-10-28T02:50:13.121Z,15.27
2017-10-28T02:52:39.953Z,10.00
2017-10-28T02:55:06.742Z,7.50
2017-10-28T02:57:33.519Z,18.43
2017-10-28T03:00:00.702Z,10.80
2017-10-28T03:02:27.543Z,30.63
2017-10-28T03:04:54.326Z,12.60
2017-10-28T03:07:21.442Z,22.43
2017-10-28T03:09:48.477Z,12.40
2017-10-28T03:12:15.287Z,21.23
2017-10-28T03:14:42.378Z,14.00
2017-10-28T03:17:09.166Z,17.83
2017-10-28T03:19:36.259Z,16.40
2017-10-28T03:22:03.091Z,13.90
2017-10-28T03:24:30.145Z,18.70
2017-10-28T03:26:56.929Z,12.87
2017-10-28T03:29:24.038Z,23.40
2017-10-28T03:31:50.847Z,12.40
2017-10-28T03:34:17.930Z,6.70
2017-10-28T03:36:44.764Z,17.60
2017-10-28T03:39:11.818Z,14.27
2017-10-28T03:41:38.603Z,11.97
2017-10-28T03:44:05.414Z,13.40
2017-10-28T03:46:32.194Z,14.83
2017-10-28T03:48:59.304Z,21.97
2017-10-28T03:51:26.106Z,18.63
2017-10-28T03:53:52.927Z,12.90
2017-10-28T03:56:19.735Z,11.20
2017-10-28T03:58:46.586Z,10.30
2017-10-28T04:01:13.348Z,7.50
2017-10-28T04:03:40.453Z,10.13
2017-10-28T04:06:07.291Z,11.33
2017-10-28T04:08:34.110Z,5.03
2017-10-28T04:11:01.199Z,9.93
2017-10-28T04:13:28.242Z,12.07
2017-10-28T04:15:55.065Z,10.43
2017-10-28T04:18:21.836Z,8.70
2017-10-28T04:20:48.672Z,13.57
2017-10-28T04:23:15.714Z,12.10
2017-10-28T04:25:42.763Z,8.17
2017-10-28T04:28:09.805Z,25.13
2017-10-28T04:30:36.854Z,15.53
2017-10-28T04:33:03.693Z,10.53
2017-10-28T04:35:30.855Z,13.97
2017-10-28T04:37:57.647Z,12.30
2017-10-28T04:40:24.459Z,14.07
2017-10-28T04:42:51.282Z,13.90
2017-10-28T04:45:18.430Z,13.23
2017-10-28T04:47:45.479Z,9.63
2017-10-28T04:50:12.628Z,8.13
2017-10-28T04:52:39.435Z,11.73
2017-10-28T04:55:06.520Z,17.93
2017-10-28T04:57:33.351Z,7.10
2017-10-28T05:00:00.169Z,12.93
2017-10-28T05:02:26.945Z,8.80
2017-10-28T05:04:53.753Z,8.67
2017-10-28T05:07:20.541Z,11.50
2017-10-28T05:09:47.334Z,11.17
2017-10-28T05:12:14.418Z,12.83
2017-10-28T05:14:41.194Z,11.73
2017-10-28T05:17:07.995Z,14.03
2017-10-28T05:19:34.852Z,10.50
2017-10-28T05:22:01.626Z,16.47
2017-10-28T05:24:28.427Z,10.03
2017-10-28T05:26:55.498Z,14.20
2017-10-28T05:29:22.632Z,18.43
2017-10-28T05:31:49.679Z,14.63
2017-10-28T05:34:16.722Z,20.77
2017-10-28T05:36:43.505Z,23.97
2017-10-28T05:39:10.319Z,8.07
2017-10-28T05:41:37.155Z,14.10
2017-10-28T05:44:03.955Z,16.67
2017-10-28T05:46:31.042Z,11.63
2017-10-28T05:48:57.907Z,14.17
2017-10-28T05:51:24.727Z,13.40
2017-10-28T05:53:51.823Z,14.00
2017-10-28T05:56:18.691Z,13.17
2017-10-28T05:58:45.461Z,23.27
2017-10-28T06:01:12.285Z,16.23
2017-10-28T06:03:39.127Z,14.37
2017-10-28T06:06:06.194Z,21.00
2017-10-28T06:08:33.008Z,29.77
2017-10-28T06:11:00.098Z,31.20
2017-10-28T06:13:27.140Z,20.13
2017-10-28T06:15:53.979Z,30.67
2017-10-28T06:18:20.787Z,20.23
2017-10-28T06:20:47.876Z,24.43
2017-10-28T06:23:14.704Z,19.50
2017-10-28T06:25:41.757Z,20.37
2017-10-28T06:28:08.807Z,26.80
2017-10-28T06:30:35.606Z,24.23
2017-10-28T06:33:02.779Z,27.60
2017-10-28T06:35:29.561Z,19.60
2017-10-28T06:37:56.484Z,22.20
2017-10-28T06:40:23.534Z,15.67
2017-10-28T06:42:50.371Z,31.50
2017-10-28T06:45:17.433Z,27.80
2017-10-28T06:47:44.987Z,21.30
2017-10-28T06:50:11.827Z,18.30
2017-10-28T06:52:38.774Z,26.47
2017-10-28T06:55:05.556Z,16.50
2017-10-28T06:57:32.383Z,18.80
2017-10-28T06:59:59.222Z,15.63
2017-10-28T07:02:26.250Z,20.00
2017-10-28T07:04:53.090Z,19.83
2017-10-28T07:07:19.882Z,26.53
2017-10-28T07:09:46.990Z,28.03
2017-10-28T07:12:14.139Z,25.53
2017-10-28T07:14:41.182Z,19.97
2017-10-28T07:17:08.026Z,23.80
2017-10-28T07:19:34.822Z,20.90
2017-10-28T07:22:01.608Z,13.73
2017-10-28T07:24:28.455Z,19.10
2017-10-28T07:26:55.251Z,8.00
2017-10-28T07:29:22.053Z,20.70
2017-10-28T07:31:49.208Z,14.10
2017-10-28T07:34:16.020Z,27.63
2017-10-28T07:36:42.843Z,17.80
2017-10-28T07:39:09.919Z,13.70
2017-10-28T07:41:36.726Z,14.27
2017-10-28T07:44:03.540Z,13.17
2017-10-28T07:46:30.661Z,20.87
2017-10-28T07:48:57.491Z,22.80
2017-10-28T07:51:24.311Z,14.33
2017-10-28T07:53:51.184Z,13.33
2017-10-28T07:56:18.008Z,12.83
2017-10-28T07:58:44.839Z,15.33
2017-10-28T08:01:11.672Z,15.53
2017-10-28T08:03:38.648Z,12.50
2017-10-28T08:06:05.537Z,21.37
2017-10-28T08:08:32.381Z,8.93
2017-10-28T08:10:59.233Z,11.27
2017-10-28T08:13:26.080Z,52.37
2017-10-28T08:15:52.921Z,19.53
2017-10-28T08:18:19.790Z,12.53
2017-10-28T08:20:46.629Z,16.27
2017-10-28T08:23:13.719Z,20.47
2017-10-28T08:25:40.543Z,88.43
2017-10-28T08:28:07.408Z,31.43
2017-10-28T08:30:34.258Z,10.50
2017-10-28T08:33:01.087Z,17.23
2017-10-28T08:35:27.915Z,16.17
2017-10-28T08:37:55.093Z,17.03
2017-10-28T08:40:21.940Z,17.03
2017-10-28T08:42:48.767Z,21.33
2017-10-28T08:45:15.612Z,15.40
2017-10-28T08:47:42.677Z,17.67
2017-10-28T08:50:09.561Z,17.77
2017-10-28T08:52:36.405Z,15.07
2017-10-28T08:55:03.321Z,13.60
2017-10-28T08:57:30.176Z,16.47
2017-10-28T08:59:57.127Z,14.47
2017-10-28T09:02:24.238Z,16.23
2017-10-28T09:04:51.316Z,23.10
2017-10-28T09:07:18.436Z,15.03
2017-10-28T09:09:45.353Z,9.20
2017-10-28T09:12:12.176Z,10.27
2017-10-28T09:14:39.205Z,12.00
2017-10-28T09:17:06.084Z,20.67
2017-10-28T09:19:33.268Z,13.03
2017-10-28T09:22:00.312Z,19.80
2017-10-28T09:24:27.156Z,15.53
2017-10-28T09:26:53.971Z,17.07
2017-10-28T09:29:20.819Z,14.13
2017-10-28T09:31:47.668Z,13.60
2017-10-28T09:34:14.835Z,15.33
2017-10-28T09:36:41.989Z,12.83
2017-10-28T09:39:08.819Z,22.63
2017-10-28T09:41:35.980Z,14.37
2017-10-28T09:44:03.023Z,21.40
2017-10-28T09:46:30.180Z,15.33
2017-10-28T09:48:57.007Z,11.20
2017-10-28T09:51:24.067Z,14.13
2017-10-28T09:53:50.908Z,18.57
2017-10-28T09:56:17.732Z,19.80
2017-10-28T09:58:44.542Z,16.27
2017-10-28T10:01:11.397Z,12.63
2017-10-28T10:03:38.493Z,16.73
2017-10-28T10:06:05.345Z,27.00
2017-10-28T10:08:32.479Z,22.03
2017-10-28T10:10:59.353Z,18.10
2017-10-28T10:13:26.477Z,15.40
2017-10-28T10:15:53.631Z,17.10
2017-10-28T10:18:20.781Z,25.73
2017-10-28T10:20:47.628Z,21.40
2017-10-28T10:23:14.769Z,13.83
2017-10-28T10:25:41.625Z,21.83
2017-10-28T10:28:08.484Z,16.93
2017-10-28T10:30:35.620Z,18.03
2017-10-28T10:33:02.529Z,22.90
2017-10-28T10:35:29.385Z,25.43
2017-10-28T10:37:56.220Z,23.80
2017-10-28T10:40:23.283Z,22.03
2017-10-28T10:42:50.125Z,18.63
2017-10-28T10:45:16.939Z,20.30
2017-10-28T10:47:44.019Z,22.07
2017-10-28T10:50:10.827Z,20.70
2017-10-28T10:52:37.669Z,15.57
2017-10-28T10:55:04.751Z,21.83
2017-10-28T10:57:31.800Z,18.17
2017-10-28T10:59:58.635Z,16.87
2017-10-28T11:02:25.691Z,24.10
2017-10-28T11:04:52.517Z,19.20
2017-10-28T11:07:19.373Z,20.83
2017-10-28T11:09:46.212Z,18.10
2017-10-28T11:12:13.371Z,21.10
2017-10-28T11:14:40.218Z,18.37
2017-10-28T11:17:07.031Z,20.03
2017-10-28T11:19:33.919Z,19.43
2017-10-28T11:22:01.053Z,27.77
2017-10-28T11:24:29.128Z,17.17
2017-10-28T11:26:55.981Z,19.47
2017-10-28T11:29:23.107Z,22.07
2017-10-28T11:31:50.276Z,28.13
2017-10-28T11:34:17.415Z,27.20
2017-10-28T11:36:44.703Z,15.23
2017-10-28T11:39:11.519Z,17.07
2017-10-28T11:41:38.665Z,20.67
2017-10-28T11:44:05.647Z,24.50
2017-10-28T11:46:32.938Z,19.43
2017-10-28T11:48:59.811Z,22.03
2017-10-28T11:51:26.661Z,18.47
2017-10-28T11:53:53.910Z,26.77
2017-10-28T11:56:20.862Z,26.07
2017-10-28T11:58:47.725Z,34.27
2017-10-28T12:01:14.845Z,15.53
2017-10-28T12:03:41.699Z,20.47
2017-10-28T12:06:08.589Z,20.83
2017-10-28T12:08:35.408Z,24.50
2017-10-28T12:11:02.847Z,13.70
2017-10-28T12:13:29.718Z,15.53
2017-10-28T12:15:56.828Z,23.30
2017-10-28T12:18:24.383Z,19.97
2017-10-28T12:20:51.232Z,18.03
2017-10-28T12:23:18.099Z,24.60
2017-10-28T12:25:44.941Z,28.93
2017-10-28T12:28:12.059Z,23.50
2017-10-28T12:30:39.080Z,25.00
2017-10-28T12:33:06.012Z,18.73
2017-10-28T12:35:32.884Z,27.10
2017-10-28T12:37:59.759Z,17.17
2017-10-28T12:40:26.625Z,20.57
2017-10-28T12:42:53.613Z,20.57
2017-10-28T12:45:20.890Z,21.17
2017-10-28T12:47:47.748Z,26.07
2017-10-28T12:50:14.637Z,32.40
2017-10-28T12:52:41.493Z,17.97
2017-10-28T12:55:08.336Z,23.47
2017-10-28T12:57:35.524Z,21.70
2017-10-28T13:00:02.348Z,22.83
2017-10-28T13:02:29.237Z,18.87
2017-10-28T13:04:56.105Z,29.27
2017-10-28T13:07:22.969Z,23.40
2017-10-28T13:09:49.808Z,33.20
2017-10-28T13:12:16.701Z,21.83
2017-10-28T13:14:43.928Z,28.27
2017-10-28T13:17:10.771Z,34.60
2017-10-28T13:19:37.636Z,25.10
2017-10-28T13:22:04.760Z,19.70
2017-10-28T13:24:31.960Z,25.43
2017-10-28T13:26:59.167Z,20.87
2017-10-28T13:29:25.974Z,23.57
2017-10-28T13:31:52.820Z,21.30
2017-10-28T13:34:19.784Z,30.87
2017-10-28T13:36:46.818Z,34.17
2017-10-28T13:39:13.668Z,30.90
2017-10-28T13:41:40.540Z,23.03
2017-10-28T13:44:07.351Z,27.53
2017-10-28T13:46:34.279Z,30.53
2017-10-28T13:49:01.366Z,41.30
2017-10-28T13:51:28.216Z,24.23
2017-10-28T13:53:55.089Z,28.73
2017-10-28T13:56:22.364Z,16.67
2017-10-28T13:58:49.183Z,25.83
2017-10-28T14:01:16.368Z,33.53
2017-10-28T14:03:43.255Z,18.87
2017-10-28T14:06:10.398Z,23.97
2017-10-28T14:08:37.546Z,41.20
2017-10-28T14:11:04.505Z,34.70
2017-10-28T14:13:31.638Z,35.00
2017-10-28T14:15:58.460Z,29.83
2017-10-28T14:18:25.299Z,33.17
2017-10-28T14:20:52.125Z,19.77
2017-10-28T14:23:18.969Z,27.17
2017-10-28T14:25:46.051Z,32.40
2017-10-28T14:28:12.855Z,27.13
2017-10-28T14:30:39.708Z,17.40
2017-10-28T14:33:06.577Z,26.33
2017-10-28T14:35:33.746Z,22.40
2017-10-28T14:38:00.903Z,25.30
2017-10-28T14:40:27.763Z,30.87
2017-10-28T14:42:54.608Z,28.30
2017-10-28T14:45:21.497Z,16.07
2017-10-28T14:47:48.349Z,25.83
2017-10-28T14:50:15.204Z,29.87
2017-10-28T14:52:42.038Z,25.70
2017-10-28T14:55:08.888Z,27.40
2017-10-28T14:57:36.043Z,18.93
2017-10-28T15:00:02.954Z,34.60
2017-10-28T15:02:29.821Z,25.97
2017-10-28T15:04:56.887Z,31.33
2017-10-28T15:07:23.742Z,27.43
2017-10-28T15:09:50.590Z,23.40
2017-10-28T15:12:17.425Z,27.10
2017-10-28T15:14:44.470Z,23.87
2017-10-28T15:17:11.611Z,32.13
2017-10-28T15:19:38.761Z,26.90
2017-10-28T15:22:05.845Z,18.13
2017-10-28T15:24:32.696Z,22.07
2017-10-28T15:26:59.800Z,26.33
2017-10-28T15:29:26.835Z,22.97
2017-10-28T15:31:53.712Z,19.33
2017-10-28T15:34:20.564Z,25.13
2017-10-28T15:36:47.464Z,32.23
2017-10-28T15:39:14.309Z,25.97
2017-10-28T15:41:41.388Z,24.40
2017-10-28T15:44:08.239Z,22.70
2017-10-28T15:46:35.091Z,24.33
2017-10-28T15:49:01.936Z,27.00
2017-10-28T15:51:28.982Z,22.37
2017-10-28T15:53:55.822Z,28.27
2017-10-28T15:56:22.643Z,23.17
2017-10-28T15:58:49.788Z,26.60
2017-10-28T16:01:16.628Z,20.70
2017-10-28T16:03:43.444Z,20.90
2017-10-28T16:06:10.301Z,29.10
2017-10-28T16:08:37.148Z,24.83
2017-10-28T16:11:04.308Z,18.47
2017-10-28T16:13:31.145Z,24.03
2017-10-28T16:15:58.005Z,21.10
2017-10-28T16:18:24.807Z,15.20
2017-10-28T16:20:51.623Z,15.73
2017-10-28T16:23:18.486Z,15.43
2017-10-28T16:25:45.286Z,24.60
2017-10-28T16:28:12.411Z,18.60
2017-10-28T16:30:39.470Z,20.43
2017-10-28T16:33:06.277Z,11.03
2017-10-28T16:35:33.456Z,18.00
2017-10-28T16:38:00.283Z,19.00
2017-10-28T16:40:27.454Z,15.83
2017-10-28T16:42:54.494Z,20.17
2017-10-28T16:45:21.327Z,19.53
2017-10-28T16:47:48.163Z,13.70
2017-10-28T16:50:15.009Z,17.27
2017-10-28T16:52:41.864Z,12.27
2017-10-28T16:55:08.672Z,14.03
2017-10-28T16:57:35.760Z,20.80
2017-10-28T17:00:02.633Z,15.43
2017-10-28T17:02:29.483Z,20.33
2017-10-28T17:04:56.287Z,12.87
2017-10-28T17:07:23.156Z,18.90
2017-10-28T17:09:50.227Z,17.97
2017-10-28T17:12:17.039Z,11.23
2017-10-28T17:14:44.176Z,15.80
2017-10-28T17:17:11.221Z,12.57
2017-10-28T17:19:38.077Z,9.67
2017-10-28T17:22:04.907Z,17.50
2017-10-28T17:24:32.060Z,17.93
2017-10-28T17:26:58.871Z,16.47
2017-10-28T17:29:25.722Z,14.00
2017-10-28T17:31:52.570Z,11.00
2017-10-28T17:34:19.632Z,13.63
2017-10-28T17:36:46.790Z,12.60
2017-10-28T17:39:13.945Z,15.10
2017-10-28T17:41:40.777Z,7.73
2017-10-28T17:44:07.604Z,13.13
2017-10-28T17:46:34.445Z,16.17
2017-10-28T17:49:01.511Z,20.00
2017-10-28T17:51:28.343Z,19.57
2017-10-28T17:53:55.152Z,13.93
2017-10-28T17:56:22.565Z,19.17
2017-10-28T17:58:50.018Z,19.57
2017-10-28T18:01:16.840Z,15.53
2017-10-28T18:03:44.010Z,22.60
2017-10-28T18:06:11.160Z,28.23
2017-10-28T18:08:38.317Z,32.93
2017-10-28T18:11:05.124Z,26.73
2017-10-28T18:13:31.953Z,15.90
2017-10-28T18:15:58.788Z,27.67
2017-10-28T18:18:25.629Z,23.00
2017-10-28T18:20:52.731Z,22.83
2017-10-28T18:23:19.540Z,11.23
2017-10-28T18:25:46.375Z,16.40
2017-10-28T18:28:13.566Z,25.57
2017-10-28T18:30:40.405Z,20.87
2017-10-28T18:33:07.212Z,20.87
2017-10-28T18:35:34.051Z,31.27
2017-10-28T18:38:01.150Z,22.17
2017-10-28T18:40:28.405Z,19.37
2017-10-28T18:42:55.264Z,22.80
2017-10-28T18:45:22.070Z,18.03
2017-10-28T18:47:48.909Z,12.83
2017-10-28T18:50:16.362Z,9.77
2017-10-28T18:52:43.202Z,24.03
2017-10-28T18:55:09.999Z,9.43
2017-10-28T18:57:36.857Z,6.00
2017-10-28T19:00:03.698Z,17.93
2017-10-28T19:02:30.539Z,16.23
2017-10-28T19:04:57.363Z,25.37
2017-10-28T19:07:24.483Z,16.03
2017-10-28T19:09:51.512Z,12.20
2017-10-28T19:12:18.368Z,13.77
2017-10-28T19:14:45.232Z,11.33
2017-10-28T19:17:12.040Z,11.67
2017-10-28T19:19:38.885Z,9.20
2017-10-28T19:22:05.732Z,10.97
2017-10-28T19:24:32.601Z,11.53
2017-10-28T19:26:59.432Z,11.30
2017-10-28T19:29:26.288Z,8.03
2017-10-28T19:31:53.136Z,8.47
2017-10-28T19:34:19.963Z,17.63
2017-10-28T19:36:46.772Z,8.77
2017-10-28T19:39:13.815Z,9.70
2017-10-28T19:41:40.640Z,9.03
2017-10-28T19:44:07.511Z,9.33
2017-10-28T19:46:34.312Z,9.60
2017-10-28T19:49:01.177Z,9.57
2017-10-28T19:51:28.018Z,17.00
2017-10-28T19:53:54.836Z,5.40
2017-10-28T19:56:21.659Z,13.13
2017-10-28T19:58:48.469Z,12.03
2017-10-28T20:01:15.277Z,13.57
2017-10-28T20:03:42.133Z,5.37
2017-10-28T20:06:08.973Z,12.50
2017-10-28T20:08:36.039Z,11.40
2017-10-28T20:11:02.900Z,12.20
2017-10-28T20:13:29.714Z,8.17
2017-10-28T20:15:56.515Z,8.37
2017-10-28T20:18:23.343Z,3.83
2017-10-28T20:20:50.498Z,6.50
2017-10-28T20:23:17.329Z,3.83
2017-10-28T20:25:44.153Z,3.50
2017-10-28T20:28:10.957Z,4.90
2017-10-28T20:30:37.792Z,2.93
2017-10-28T20:33:04.916Z,3.80
2017-10-28T20:35:32.068Z,4.40
2017-10-28T20:37:58.873Z,5.77
2017-10-28T20:40:25.697Z,6.80
2017-10-28T20:42:52.537Z,4.50
2017-10-28T20:45:19.639Z,8.10
2017-10-28T20:47:46.463Z,7.00
2017-10-28T20:50:13.301Z,7.83
2017-10-28T20:52:40.111Z,4.53
2017-10-28T20:55:07.219Z,9.20
2017-10-28T20:57:34.032Z,10.47
2017-10-28T21:00:00.868Z,9.50
2017-10-28T21:02:27.691Z,18.40
2017-10-28T21:04:54.530Z,9.67
2017-10-28T21:07:22.285Z,7.77
2017-10-28T21:09:49.144Z,14.67
2017-10-28T21:12:15.957Z,16.83
2017-10-28T21:14:42.794Z,9.63
2017-10-28T21:17:09.656Z,20.50
2017-10-28T21:19:36.684Z,22.37
2017-10-28T21:22:03.502Z,10.73
2017-10-28T21:24:30.356Z,5.50
2017-10-28T21:26:57.156Z,7.10
2017-10-28T21:29:23.997Z,10.97
2017-10-28T21:31:51.091Z,8.67
2017-10-28T21:34:17.903Z,8.70
2017-10-28T21:36:44.741Z,6.77
2017-10-28T21:39:11.937Z,5.50
2017-10-28T21:41:39.008Z,4.47
2017-10-28T21:44:05.815Z,2.80
2017-10-28T21:46:32.977Z,3.27
2017-10-28T21:49:00.126Z,4.83
2017-10-28T21:51:26.923Z,7.23
2017-10-28T21:53:53.794Z,5.90
2017-10-28T21:56:20.622Z,1.60
2017-10-28T21:58:47.699Z,2.93
2017-10-28T22:01:14.855Z,8.77
2017-10-28T22:03:41.689Z,2.87
2017-10-28T22:06:08.527Z,1.80
2017-10-28T22:08:35.688Z,3.83
2017-10-28T22:11:02.493Z,0.77
2017-10-28T22:13:29.575Z,2.70
2017-10-28T22:15:56.403Z,2.80
2017-10-28T22:18:23.203Z,2.17
2017-10-28T22:20:50.317Z,5.40
2017-10-28T22:23:17.463Z,6.17
2017-10-28T22:25:44.266Z,3.47
2017-10-28T22:28:11.068Z,1.60
2017-10-28T22:30:38.195Z,3.80
2017-10-28T22:33:05.352Z,3.30
2017-10-28T22:35:32.160Z,3.90
2017-10-28T22:37:59.014Z,2.60
2017-10-28T22:40:25.835Z,2.83
2017-10-28T22:42:52.928Z,4.90
2017-10-28T22:45:19.761Z,6.13
2017-10-28T22:47:46.564Z,5.60
2017-10-28T22:50:13.401Z,8.90
2017-10-28T22:52:40.499Z,2.87
2017-10-28T22:55:07.552Z,5.70
2017-10-28T22:57:34.699Z,4.00
2017-10-28T23:00:01.847Z,3.70
2017-10-28T23:02:28.456Z,4.93
2017-10-28T23:04:55.312Z,1.77
2017-10-28T23:07:22.171Z,1.27
2017-10-28T23:09:48.977Z,2.03
2017-10-28T23:12:16.069Z,3.03
2017-10-28T23:14:42.933Z,2.80
2017-10-28T23:17:09.777Z,1.43
2017-10-28T23:19:36.908Z,10.90
2017-10-28T23:22:03.736Z,3.80
2017-10-28T23:24:30.592Z,3.40
2017-10-28T23:26:57.460Z,5.83
2017-10-28T23:29:24.282Z,5.43
2017-10-28T23:31:51.130Z,5.50
2017-10-28T23:34:17.971Z,3.70
2017-10-28T23:36:45.117Z,3.53
2017-10-28T23:39:11.946Z,7.20
2017-10-28T23:41:39.111Z,4.40
2017-10-28T23:44:05.943Z,2.80
2017-10-28T23:46:32.756Z,2.57
2017-10-28T23:48:59.591Z,2.70
2017-10-28T23:51:26.419Z,1.87
2017-10-28T23:53:53.529Z,4.83
2017-10-28T23:56:20.677Z,2.03
2017-10-28T23:58:47.828Z,1.90
